SWA3461 KLAS-KDEN
Flight info
| Callsign | SWA3461 |
|---|---|
| Flight time | 1h 31m |
| Altitude | 35000 |
| Route | GIDGT3 TUKRR BUMMP SSKII4 |
| Aircraft | B737/M-SDE2E3FGHIRWXY/LB1 |
Departure
| Time | 2026-05-06 05:01 |
|---|---|
| Airport | Harry Reid International Airport (KLAS) |
Arrival
| Time | 2026-05-06 06:33 |
|---|---|
| Airport | Denver International Airport (KDEN) |
| Time | Latitude | Longitude | Altitude | Speed | Heading |
|---|---|---|---|---|---|
| 2026-05-06 04:32 | 36.08221 | -115.14687 | 2095 ft | 0 kts | 255° |
| 2026-05-06 04:32 | 36.08222 | -115.14687 | 2095 ft | 0 kts | 255° |
| 2026-05-06 04:50 | 36.08223 | -115.14681 | 2095 ft | 4 kts | 256° |
| 2026-05-06 04:50 | 36.08226 | -115.14649 | 2095 ft | 4 kts | 270° |
| 2026-05-06 04:50 | 36.08226 | -115.14623 | 2095 ft | 4 kts | 283° |
| 2026-05-06 04:50 | 36.08215 | -115.14595 | 2095 ft | 3 kts | 306° |
| 2026-05-06 04:51 | 36.08198 | -115.14572 | 2096 ft | 5 kts | 332° |
| 2026-05-06 04:51 | 36.08174 | -115.14564 | 2096 ft | 4 kts | 358° |
| 2026-05-06 04:51 | 36.08153 | -115.14558 | 2096 ft | 4 kts | 292° |
| 2026-05-06 04:51 | 36.08154 | -115.14541 | 2096 ft | 4 kts | 195° |
| 2026-05-06 04:52 | 36.08176 | -115.14541 | 2096 ft | 4 kts | 176° |
| 2026-05-06 04:52 | 36.08176 | -115.14540 | 2096 ft | 0 kts | 176° |
| 2026-05-06 04:54 | 36.08169 | -115.14539 | 2096 ft | 5 kts | 167° |
| 2026-05-06 04:54 | 36.08112 | -115.14508 | 2096 ft | 12 kts | 155° |
| 2026-05-06 04:54 | 36.08030 | -115.14484 | 2096 ft | 12 kts | 180° |
| 2026-05-06 04:55 | 36.07943 | -115.14484 | 2095 ft | 12 kts | 180° |
| 2026-05-06 04:55 | 36.07853 | -115.14466 | 2095 ft | 15 kts | 140° |
| 2026-05-06 04:55 | 36.07828 | -115.14340 | 2095 ft | 18 kts | 93° |
| 2026-05-06 04:55 | 36.07828 | -115.14160 | 2093 ft | 23 kts | 90° |
| 2026-05-06 04:56 | 36.07828 | -115.13964 | 2092 ft | 23 kts | 89° |
| 2026-05-06 04:56 | 36.07831 | -115.13767 | 2092 ft | 24 kts | 89° |
| 2026-05-06 04:56 | 36.07827 | -115.13565 | 2091 ft | 23 kts | 91° |
| 2026-05-06 04:56 | 36.07828 | -115.13371 | 2088 ft | 22 kts | 90° |
| 2026-05-06 04:57 | 36.07828 | -115.13168 | 2083 ft | 25 kts | 90° |
| 2026-05-06 04:57 | 36.07828 | -115.12932 | 2071 ft | 29 kts | 90° |
| 2026-05-06 04:57 | 36.07829 | -115.12701 | 2064 ft | 27 kts | 90° |
| 2026-05-06 04:57 | 36.07829 | -115.12471 | 2057 ft | 26 kts | 89° |
| 2026-05-06 04:58 | 36.07828 | -115.12288 | 2053 ft | 18 kts | 101° |
| 2026-05-06 04:58 | 36.07767 | -115.12174 | 2049 ft | 12 kts | 129° |
| 2026-05-06 04:58 | 36.07751 | -115.12150 | 2048 ft | 0 kts | 130° |
| 2026-05-06 04:58 | 36.07731 | -115.12130 | 2047 ft | 10 kts | 148° |
| 2026-05-06 04:59 | 36.07651 | -115.12126 | 2047 ft | 9 kts | 212° |
| 2026-05-06 04:59 | 36.07641 | -115.12170 | 2053 ft | 0 kts | 271° |
| 2026-05-06 05:00 | 36.07641 | -115.12192 | 2051 ft | 16 kts | 271° |
| 2026-05-06 05:01 | 36.07642 | -115.12623 | 2063 ft | 83 kts | 270° |
| 2026-05-06 05:01 | 36.07642 | -115.13586 | 2091 ft | 139 kts | 270° |
| 2026-05-06 05:01 | 36.07645 | -115.14924 | 2335 ft | 164 kts | 269° |
| 2026-05-06 05:01 | 36.07655 | -115.16338 | 3093 ft | 163 kts | 265° |
| 2026-05-06 05:02 | 36.07652 | -115.17718 | 3839 ft | 163 kts | 268° |
| 2026-05-06 05:02 | 36.07650 | -115.19220 | 4182 ft | 189 kts | 268° |
| 2026-05-06 05:02 | 36.07645 | -115.20949 | 4577 ft | 208 kts | 268° |
| 2026-05-06 05:02 | 36.07642 | -115.22780 | 5092 ft | 223 kts | 269° |
| 2026-05-06 05:03 | 36.07640 | -115.24734 | 5933 ft | 227 kts | 269° |
| 2026-05-06 05:03 | 36.07829 | -115.26666 | 6663 ft | 234 kts | 293° |
| 2026-05-06 05:03 | 36.08818 | -115.28240 | 7427 ft | 241 kts | 326° |
| 2026-05-06 05:03 | 36.10395 | -115.28999 | 8137 ft | 250 kts | 347° |
| 2026-05-06 05:04 | 36.12098 | -115.29478 | 9100 ft | 250 kts | 348° |
| 2026-05-06 05:04 | 36.13827 | -115.29677 | 10040 ft | 253 kts | 9° |
| 2026-05-06 05:04 | 36.15465 | -115.28884 | 10883 ft | 260 kts | 33° |
| 2026-05-06 05:04 | 36.16770 | -115.27179 | 11195 ft | 291 kts | 55° |
| 2026-05-06 05:05 | 36.17778 | -115.24868 | 11521 ft | 317 kts | 65° |
| 2026-05-06 05:05 | 36.18583 | -115.22278 | 12301 ft | 326 kts | 68° |
| 2026-05-06 05:05 | 36.19359 | -115.19631 | 13289 ft | 328 kts | 70° |
| 2026-05-06 05:05 | 36.19705 | -115.16819 | 14227 ft | 335 kts | 86° |
| 2026-05-06 05:06 | 36.19704 | -115.13916 | 15127 ft | 339 kts | 88° |
| 2026-05-06 05:06 | 36.19682 | -115.10982 | 16017 ft | 343 kts | 88° |
| 2026-05-06 05:06 | 36.19659 | -115.08006 | 16868 ft | 347 kts | 88° |
| 2026-05-06 05:06 | 36.19643 | -115.04998 | 17744 ft | 352 kts | 88° |
| 2026-05-06 05:07 | 36.19633 | -115.01953 | 18566 ft | 356 kts | 88° |
| 2026-05-06 05:07 | 36.19626 | -114.98882 | 19450 ft | 356 kts | 87° |
| 2026-05-06 05:07 | 36.19621 | -114.95816 | 20367 ft | 356 kts | 86° |
| 2026-05-06 05:07 | 36.19618 | -114.92743 | 21215 ft | 358 kts | 86° |
| 2026-05-06 05:08 | 36.19615 | -114.89646 | 21999 ft | 361 kts | 86° |
| 2026-05-06 05:08 | 36.19612 | -114.86525 | 22773 ft | 364 kts | 86° |
| 2026-05-06 05:08 | 36.19608 | -114.83374 | 23481 ft | 369 kts | 86° |
| 2026-05-06 05:08 | 36.19603 | -114.80189 | 24093 ft | 371 kts | 85° |
| 2026-05-06 05:09 | 36.19597 | -114.76985 | 24767 ft | 372 kts | 85° |
| 2026-05-06 05:09 | 36.19590 | -114.73774 | 25414 ft | 374 kts | 85° |
| 2026-05-06 05:09 | 36.19582 | -114.70544 | 26005 ft | 377 kts | 85° |
| 2026-05-06 05:09 | 36.19574 | -114.67291 | 26613 ft | 379 kts | 85° |
| 2026-05-06 05:10 | 36.19567 | -114.64020 | 27220 ft | 381 kts | 85° |
| 2026-05-06 05:10 | 36.19560 | -114.60733 | 27855 ft | 383 kts | 84° |
| 2026-05-06 05:10 | 36.19552 | -114.57433 | 28442 ft | 385 kts | 84° |
| 2026-05-06 05:10 | 36.19544 | -114.54100 | 28903 ft | 389 kts | 84° |
| 2026-05-06 05:11 | 36.19535 | -114.50735 | 29425 ft | 392 kts | 84° |
| 2026-05-06 05:11 | 36.19523 | -114.47349 | 29931 ft | 394 kts | 84° |
| 2026-05-06 05:11 | 36.19510 | -114.43947 | 30396 ft | 396 kts | 84° |
| 2026-05-06 05:11 | 36.19496 | -114.40546 | 30945 ft | 394 kts | 84° |
| 2026-05-06 05:12 | 36.19481 | -114.37165 | 31525 ft | 393 kts | 85° |
| 2026-05-06 05:12 | 36.19467 | -114.33779 | 31976 ft | 393 kts | 85° |
| 2026-05-06 05:12 | 36.19452 | -114.30394 | 32422 ft | 394 kts | 85° |
| 2026-05-06 05:12 | 36.19435 | -114.27012 | 32912 ft | 393 kts | 85° |
| 2026-05-06 05:13 | 36.19437 | -114.23638 | 33440 ft | 390 kts | 82° |
| 2026-05-06 05:13 | 36.19700 | -114.20322 | 33906 ft | 386 kts | 78° |
| 2026-05-06 05:13 | 36.20100 | -114.17020 | 34131 ft | 389 kts | 77° |
| 2026-05-06 05:13 | 36.20545 | -114.13689 | 34309 ft | 395 kts | 77° |
| 2026-05-06 05:14 | 36.20995 | -114.10322 | 34545 ft | 398 kts | 77° |
| 2026-05-06 05:14 | 36.21434 | -114.06928 | 34789 ft | 401 kts | 78° |
| 2026-05-06 05:14 | 36.21864 | -114.03497 | 34803 ft | 404 kts | 78° |
| 2026-05-06 05:15 | 36.22695 | -113.96604 | 34822 ft | 403 kts | 78° |
| 2026-05-06 05:15 | 36.23497 | -113.89799 | 34828 ft | 401 kts | 78° |
| 2026-05-06 05:16 | 36.24299 | -113.82950 | 34842 ft | 403 kts | 78° |
| 2026-05-06 05:16 | 36.25103 | -113.76058 | 34844 ft | 406 kts | 78° |
| 2026-05-06 05:17 | 36.25909 | -113.69118 | 34857 ft | 408 kts | 78° |
| 2026-05-06 05:17 | 36.26706 | -113.62195 | 34846 ft | 403 kts | 78° |
| 2026-05-06 05:18 | 36.27497 | -113.55314 | 34872 ft | 404 kts | 78° |
| 2026-05-06 05:18 | 36.28286 | -113.48409 | 34881 ft | 405 kts | 78° |
| 2026-05-06 05:19 | 36.29073 | -113.41489 | 34882 ft | 406 kts | 78° |
| 2026-05-06 05:19 | 36.29860 | -113.34529 | 34887 ft | 409 kts | 78° |
| 2026-05-06 05:20 | 36.30648 | -113.27530 | 34886 ft | 411 kts | 79° |
| 2026-05-06 05:20 | 36.31756 | -113.20598 | 34874 ft | 408 kts | 64° |
| 2026-05-06 05:21 | 36.34086 | -113.14183 | 34899 ft | 409 kts | 63° |
| 2026-05-06 05:21 | 36.36400 | -113.07738 | 34898 ft | 409 kts | 64° |
| 2026-05-06 05:22 | 36.38687 | -113.01275 | 34885 ft | 409 kts | 64° |
| 2026-05-06 05:22 | 36.40938 | -112.94866 | 34891 ft | 407 kts | 64° |
| 2026-05-06 05:23 | 36.43190 | -112.88435 | 34897 ft | 405 kts | 64° |
| 2026-05-06 05:23 | 36.46548 | -112.78819 | 34900 ft | 404 kts | 64° |
| 2026-05-06 05:24 | 36.48783 | -112.72404 | 34904 ft | 405 kts | 64° |
| 2026-05-06 05:24 | 36.51020 | -112.65973 | 34910 ft | 406 kts | 64° |
| 2026-05-06 05:25 | 36.53263 | -112.59506 | 34905 ft | 408 kts | 64° |
| 2026-05-06 05:25 | 36.55508 | -112.53021 | 34905 ft | 409 kts | 64° |
| 2026-05-06 05:26 | 36.57753 | -112.46522 | 34905 ft | 410 kts | 64° |
| 2026-05-06 05:26 | 36.60000 | -112.40003 | 34901 ft | 410 kts | 65° |
| 2026-05-06 05:27 | 36.62243 | -112.33483 | 34910 ft | 410 kts | 64° |
| 2026-05-06 05:27 | 36.64481 | -112.26959 | 34904 ft | 409 kts | 64° |
| 2026-05-06 05:28 | 36.66715 | -112.20437 | 34908 ft | 409 kts | 65° |
| 2026-05-06 05:28 | 36.68566 | -112.15018 | 34886 ft | 409 kts | 65° |
| 2026-05-06 05:29 | 36.70796 | -112.08483 | 34881 ft | 411 kts | 65° |
| 2026-05-06 05:29 | 36.73395 | -112.00845 | 34863 ft | 413 kts | 65° |
| 2026-05-06 05:30 | 36.75639 | -111.94235 | 34862 ft | 415 kts | 65° |
| 2026-05-06 05:30 | 36.77521 | -111.88678 | 34820 ft | 416 kts | 65° |
| 2026-05-06 05:31 | 36.79772 | -111.82019 | 34818 ft | 417 kts | 65° |
| 2026-05-06 05:31 | 36.82025 | -111.75339 | 34797 ft | 419 kts | 65° |
| 2026-05-06 05:32 | 36.84272 | -111.68664 | 34802 ft | 421 kts | 65° |
| 2026-05-06 05:32 | 36.86554 | -111.61874 | 34801 ft | 422 kts | 65° |
| 2026-05-06 05:33 | 36.88791 | -111.55145 | 34924 ft | 422 kts | 65° |
| 2026-05-06 05:33 | 36.91008 | -111.48388 | 34921 ft | 419 kts | 65° |
| 2026-05-06 05:34 | 36.93198 | -111.41683 | 34922 ft | 415 kts | 65° |
| 2026-05-06 05:34 | 36.95370 | -111.35018 | 34924 ft | 413 kts | 65° |
| 2026-05-06 05:35 | 36.97533 | -111.28371 | 34899 ft | 412 kts | 65° |
| 2026-05-06 05:35 | 36.99697 | -111.21718 | 34862 ft | 414 kts | 65° |
| 2026-05-06 05:36 | 37.01867 | -111.15041 | 34827 ft | 415 kts | 65° |
| 2026-05-06 05:36 | 37.04055 | -111.08335 | 34798 ft | 417 kts | 66° |
| 2026-05-06 05:37 | 37.06269 | -111.01597 | 34754 ft | 420 kts | 65° |
| 2026-05-06 05:37 | 37.08499 | -110.94829 | 34762 ft | 422 kts | 65° |
| 2026-05-06 05:38 | 37.10740 | -110.88029 | 34766 ft | 423 kts | 65° |
| 2026-05-06 05:38 | 37.12989 | -110.81204 | 34760 ft | 424 kts | 65° |
| 2026-05-06 05:39 | 37.15222 | -110.74380 | 34759 ft | 422 kts | 65° |
| 2026-05-06 05:39 | 37.17428 | -110.67589 | 34759 ft | 420 kts | 65° |
| 2026-05-06 05:40 | 37.19618 | -110.60819 | 34746 ft | 418 kts | 64° |
| 2026-05-06 05:40 | 37.21800 | -110.54067 | 34752 ft | 417 kts | 65° |
| 2026-05-06 05:41 | 37.23980 | -110.47312 | 34754 ft | 418 kts | 65° |
| 2026-05-06 05:41 | 37.26192 | -110.40538 | 34756 ft | 420 kts | 66° |
| 2026-05-06 05:42 | 37.28434 | -110.33733 | 34762 ft | 423 kts | 65° |
| 2026-05-06 05:42 | 37.30679 | -110.26933 | 34755 ft | 426 kts | 65° |
| 2026-05-06 05:43 | 37.32951 | -110.20051 | 34767 ft | 427 kts | 66° |
| 2026-05-06 05:43 | 37.35252 | -110.13155 | 34767 ft | 428 kts | 62° |
| 2026-05-06 05:44 | 37.36817 | -110.09989 | 34775 ft | 426 kts | 50° |
| 2026-05-06 05:44 | 37.38677 | -110.07090 | 34776 ft | 426 kts | 49° |
| 2026-05-06 05:44 | 37.42418 | -110.01413 | 34761 ft | 418 kts | 49° |
| 2026-05-06 05:45 | 37.46080 | -109.95783 | 34775 ft | 416 kts | 49° |
| 2026-05-06 05:45 | 37.49742 | -109.90068 | 34788 ft | 423 kts | 50° |
| 2026-05-06 05:46 | 37.53425 | -109.84274 | 34771 ft | 422 kts | 50° |
| 2026-05-06 05:46 | 37.57141 | -109.78413 | 34790 ft | 436 kts | 50° |
| 2026-05-06 05:47 | 37.60990 | -109.72332 | 34794 ft | 451 kts | 50° |
| 2026-05-06 05:47 | 37.64908 | -109.66129 | 34917 ft | 453 kts | 50° |
| 2026-05-06 05:48 | 37.68806 | -109.59944 | 34912 ft | 446 kts | 50° |
| 2026-05-06 05:48 | 37.72650 | -109.53835 | 34921 ft | 443 kts | 50° |
| 2026-05-06 05:49 | 37.76480 | -109.47740 | 34902 ft | 443 kts | 50° |
| 2026-05-06 05:49 | 37.80317 | -109.41622 | 34868 ft | 444 kts | 50° |
| 2026-05-06 05:50 | 37.84158 | -109.35486 | 34847 ft | 446 kts | 50° |
| 2026-05-06 05:50 | 37.88006 | -109.29327 | 34805 ft | 447 kts | 50° |
| 2026-05-06 05:51 | 37.91870 | -109.23131 | 34784 ft | 449 kts | 50° |
| 2026-05-06 05:51 | 37.95739 | -109.16913 | 34784 ft | 450 kts | 50° |
| 2026-05-06 05:52 | 37.99614 | -109.10677 | 34780 ft | 451 kts | 51° |
| 2026-05-06 05:52 | 38.03469 | -109.04458 | 34788 ft | 452 kts | 50° |
| 2026-05-06 05:53 | 38.07361 | -108.98167 | 34784 ft | 454 kts | 50° |
| 2026-05-06 05:53 | 38.11095 | -108.91687 | 34775 ft | 457 kts | 59° |
| 2026-05-06 05:54 | 38.13951 | -108.84473 | 34771 ft | 458 kts | 63° |
| 2026-05-06 05:54 | 38.16671 | -108.77151 | 34784 ft | 459 kts | 63° |
| 2026-05-06 05:55 | 38.19463 | -108.69845 | 34782 ft | 460 kts | 63° |
| 2026-05-06 05:55 | 38.22304 | -108.62556 | 34774 ft | 461 kts | 62° |
| 2026-05-06 05:56 | 38.25160 | -108.55249 | 34792 ft | 461 kts | 62° |
| 2026-05-06 05:56 | 38.28010 | -108.47937 | 34781 ft | 462 kts | 62° |
| 2026-05-06 05:57 | 38.30858 | -108.40605 | 34791 ft | 462 kts | 62° |
| 2026-05-06 05:57 | 38.33704 | -108.33259 | 34793 ft | 463 kts | 62° |
| 2026-05-06 05:58 | 38.36550 | -108.25895 | 34789 ft | 465 kts | 63° |
| 2026-05-06 05:58 | 38.39405 | -108.18490 | 34851 ft | 466 kts | 63° |
| 2026-05-06 05:59 | 38.42268 | -108.11045 | 34888 ft | 468 kts | 63° |
| 2026-05-06 05:59 | 38.45130 | -108.03587 | 34914 ft | 469 kts | 63° |
| 2026-05-06 06:00 | 38.47984 | -107.96100 | 34930 ft | 467 kts | 63° |
| 2026-05-06 06:00 | 38.50776 | -107.88703 | 34937 ft | 465 kts | 63° |
| 2026-05-06 06:01 | 38.53600 | -107.81205 | 34799 ft | 466 kts | 63° |
| 2026-05-06 06:01 | 38.56394 | -107.73775 | 34811 ft | 467 kts | 63° |
| 2026-05-06 06:02 | 38.59208 | -107.66275 | 34795 ft | 469 kts | 63° |
| 2026-05-06 06:02 | 38.62026 | -107.58745 | 34788 ft | 470 kts | 63° |
| 2026-05-06 06:03 | 38.64843 | -107.51201 | 34806 ft | 470 kts | 63° |
| 2026-05-06 06:03 | 38.67679 | -107.43653 | 34793 ft | 471 kts | 63° |
| 2026-05-06 06:04 | 38.70536 | -107.36127 | 34790 ft | 470 kts | 63° |
| 2026-05-06 06:04 | 38.73402 | -107.28561 | 34807 ft | 474 kts | 63° |
| 2026-05-06 06:05 | 38.76279 | -107.20931 | 34799 ft | 477 kts | 63° |
| 2026-05-06 06:05 | 38.79162 | -107.13255 | 34789 ft | 478 kts | 63° |
| 2026-05-06 06:06 | 38.82045 | -107.05562 | 34786 ft | 479 kts | 63° |
| 2026-05-06 06:06 | 38.84929 | -106.97846 | 34788 ft | 480 kts | 63° |
| 2026-05-06 06:07 | 38.87813 | -106.90111 | 34775 ft | 481 kts | 63° |
| 2026-05-06 06:07 | 38.90700 | -106.82346 | 34811 ft | 482 kts | 63° |
| 2026-05-06 06:08 | 38.93567 | -106.74617 | 34820 ft | 482 kts | 63° |
| 2026-05-06 06:08 | 38.96448 | -106.66829 | 34808 ft | 483 kts | 63° |
| 2026-05-06 06:09 | 38.97881 | -106.62948 | 34617 ft | 480 kts | 63° |
| 2026-05-06 06:09 | 38.99302 | -106.59095 | 34248 ft | 473 kts | 63° |
| 2026-05-06 06:09 | 39.00698 | -106.55301 | 33819 ft | 468 kts | 64° |
| 2026-05-06 06:09 | 39.02076 | -106.51540 | 33300 ft | 462 kts | 63° |
| 2026-05-06 06:10 | 39.03436 | -106.47819 | 32830 ft | 457 kts | 63° |
| 2026-05-06 06:10 | 39.04774 | -106.44155 | 32480 ft | 449 kts | 63° |
| 2026-05-06 06:10 | 39.06099 | -106.40522 | 31895 ft | 447 kts | 62° |
| 2026-05-06 06:10 | 39.07413 | -106.36914 | 31447 ft | 442 kts | 62° |
| 2026-05-06 06:11 | 39.08712 | -106.33348 | 30987 ft | 438 kts | 62° |
| 2026-05-06 06:11 | 39.10000 | -106.29806 | 30554 ft | 435 kts | 61° |
| 2026-05-06 06:11 | 39.11277 | -106.26293 | 30066 ft | 432 kts | 60° |
| 2026-05-06 06:11 | 39.12545 | -106.22800 | 29526 ft | 429 kts | 60° |
| 2026-05-06 06:12 | 39.13804 | -106.19329 | 28972 ft | 425 kts | 61° |
| 2026-05-06 06:12 | 39.15046 | -106.15897 | 28454 ft | 420 kts | 61° |
| 2026-05-06 06:12 | 39.16271 | -106.12500 | 27977 ft | 415 kts | 61° |
| 2026-05-06 06:12 | 39.17478 | -106.09145 | 27470 ft | 411 kts | 61° |
| 2026-05-06 06:13 | 39.18676 | -106.05810 | 26968 ft | 408 kts | 62° |
| 2026-05-06 06:13 | 39.19864 | -106.02503 | 26466 ft | 405 kts | 62° |
| 2026-05-06 06:13 | 39.21042 | -105.99218 | 25976 ft | 402 kts | 62° |
| 2026-05-06 06:13 | 39.22211 | -105.95957 | 25483 ft | 400 kts | 62° |
| 2026-05-06 06:14 | 39.23373 | -105.92710 | 24965 ft | 398 kts | 62° |
| 2026-05-06 06:14 | 39.24531 | -105.89481 | 24590 ft | 396 kts | 62° |
| 2026-05-06 06:14 | 39.25693 | -105.86258 | 24203 ft | 396 kts | 62° |
| 2026-05-06 06:14 | 39.26858 | -105.83029 | 23815 ft | 397 kts | 63° |
| 2026-05-06 06:15 | 39.28025 | -105.79792 | 23406 ft | 399 kts | 63° |
| 2026-05-06 06:15 | 39.29192 | -105.76546 | 23009 ft | 398 kts | 63° |
| 2026-05-06 06:15 | 39.30355 | -105.73307 | 22579 ft | 396 kts | 63° |
| 2026-05-06 06:15 | 39.31506 | -105.70096 | 22170 ft | 392 kts | 63° |
| 2026-05-06 06:16 | 39.32641 | -105.66930 | 21803 ft | 386 kts | 63° |
| 2026-05-06 06:16 | 39.33775 | -105.63806 | 21451 ft | 382 kts | 62° |
| 2026-05-06 06:16 | 39.34909 | -105.60707 | 21042 ft | 381 kts | 62° |
| 2026-05-06 06:16 | 39.36040 | -105.57618 | 20634 ft | 380 kts | 62° |
| 2026-05-06 06:17 | 39.37166 | -105.54537 | 20250 ft | 378 kts | 62° |
| 2026-05-06 06:17 | 39.38286 | -105.51468 | 19845 ft | 376 kts | 62° |
| 2026-05-06 06:17 | 39.39395 | -105.48420 | 19515 ft | 373 kts | 62° |
| 2026-05-06 06:17 | 39.40122 | -105.46419 | 19242 ft | 371 kts | 62° |
| 2026-05-06 06:18 | 39.41202 | -105.43403 | 18866 ft | 369 kts | 65° |
| 2026-05-06 06:18 | 39.41774 | -105.40175 | 18457 ft | 371 kts | 86° |
| 2026-05-06 06:18 | 39.41824 | -105.36866 | 18065 ft | 367 kts | 89° |
| 2026-05-06 06:18 | 39.41816 | -105.33583 | 17675 ft | 364 kts | 90° |
| 2026-05-06 06:19 | 39.41800 | -105.30323 | 17231 ft | 362 kts | 90° |
| 2026-05-06 06:19 | 39.41792 | -105.27087 | 16820 ft | 357 kts | 90° |
| 2026-05-06 06:19 | 39.41793 | -105.23917 | 16417 ft | 349 kts | 90° |
| 2026-05-06 06:19 | 39.41800 | -105.20801 | 16105 ft | 345 kts | 89° |
| 2026-05-06 06:20 | 39.41812 | -105.17719 | 15747 ft | 341 kts | 89° |
| 2026-05-06 06:20 | 39.41824 | -105.14662 | 15376 ft | 338 kts | 90° |
| 2026-05-06 06:20 | 39.41837 | -105.11636 | 15038 ft | 335 kts | 90° |
| 2026-05-06 06:20 | 39.41849 | -105.08631 | 14685 ft | 333 kts | 90° |
| 2026-05-06 06:21 | 39.41860 | -105.05656 | 14353 ft | 330 kts | 90° |
| 2026-05-06 06:21 | 39.41871 | -105.02706 | 14006 ft | 326 kts | 90° |
| 2026-05-06 06:21 | 39.41881 | -104.99784 | 13618 ft | 323 kts | 90° |
| 2026-05-06 06:21 | 39.41889 | -104.96931 | 13232 ft | 312 kts | 90° |
| 2026-05-06 06:22 | 39.41903 | -104.94181 | 12901 ft | 300 kts | 88° |
| 2026-05-06 06:22 | 39.42082 | -104.91545 | 12622 ft | 288 kts | 83° |
| 2026-05-06 06:22 | 39.42328 | -104.89016 | 12336 ft | 278 kts | 83° |
| 2026-05-06 06:22 | 39.42562 | -104.86576 | 12077 ft | 271 kts | 83° |
| 2026-05-06 06:23 | 39.42791 | -104.84172 | 11817 ft | 268 kts | 83° |
| 2026-05-06 06:23 | 39.43008 | -104.81798 | 11591 ft | 262 kts | 84° |
| 2026-05-06 06:23 | 39.43213 | -104.79505 | 11327 ft | 251 kts | 84° |
| 2026-05-06 06:23 | 39.43408 | -104.77296 | 11084 ft | 243 kts | 84° |
| 2026-05-06 06:24 | 39.43736 | -104.75228 | 10986 ft | 228 kts | 69° |
| 2026-05-06 06:24 | 39.44333 | -104.73404 | 10965 ft | 213 kts | 67° |
| 2026-05-06 06:24 | 39.44899 | -104.71662 | 10973 ft | 208 kts | 68° |
| 2026-05-06 06:24 | 39.45498 | -104.69950 | 10973 ft | 210 kts | 55° |
| 2026-05-06 06:25 | 39.46523 | -104.68844 | 10999 ft | 208 kts | 21° |
| 2026-05-06 06:25 | 39.47858 | -104.68276 | 11000 ft | 210 kts | 13° |
| 2026-05-06 06:25 | 39.50613 | -104.67361 | 10975 ft | 194 kts | 13° |
| 2026-05-06 06:26 | 39.51888 | -104.66931 | 10976 ft | 191 kts | 13° |
| 2026-05-06 06:26 | 39.53159 | -104.66565 | 10961 ft | 185 kts | 5° |
| 2026-05-06 06:26 | 39.54457 | -104.66444 | 10791 ft | 191 kts | 1° |
| 2026-05-06 06:26 | 39.55778 | -104.66396 | 10560 ft | 189 kts | 1° |
| 2026-05-06 06:27 | 39.57087 | -104.66370 | 10288 ft | 187 kts | 1° |
| 2026-05-06 06:27 | 39.58382 | -104.66351 | 10038 ft | 184 kts | 1° |
| 2026-05-06 06:27 | 39.59656 | -104.66334 | 9782 ft | 183 kts | 1° |
| 2026-05-06 06:27 | 39.60920 | -104.66319 | 9534 ft | 180 kts | 2° |
| 2026-05-06 06:28 | 39.62167 | -104.66304 | 9299 ft | 178 kts | 2° |
| 2026-05-06 06:28 | 39.63399 | -104.66289 | 9069 ft | 177 kts | 3° |
| 2026-05-06 06:28 | 39.64636 | -104.66275 | 8860 ft | 180 kts | 3° |
| 2026-05-06 06:28 | 39.65887 | -104.66260 | 8629 ft | 179 kts | 2° |
| 2026-05-06 06:29 | 39.67120 | -104.66244 | 8391 ft | 176 kts | 3° |
| 2026-05-06 06:29 | 39.68339 | -104.66229 | 8166 ft | 174 kts | 3° |
| 2026-05-06 06:29 | 39.69547 | -104.66215 | 7941 ft | 173 kts | 4° |
| 2026-05-06 06:29 | 39.70751 | -104.66200 | 7737 ft | 173 kts | 3° |
| 2026-05-06 06:30 | 39.71942 | -104.66187 | 7511 ft | 168 kts | 4° |
| 2026-05-06 06:30 | 39.73051 | -104.66175 | 7331 ft | 153 kts | 4° |
| 2026-05-06 06:30 | 39.74075 | -104.66162 | 7107 ft | 143 kts | 4° |
| 2026-05-06 06:30 | 39.75096 | -104.66148 | 7051 ft | 148 kts | 4° |
| 2026-05-06 06:31 | 39.76127 | -104.66135 | 6902 ft | 147 kts | 4° |
| 2026-05-06 06:31 | 39.77149 | -104.66123 | 6749 ft | 146 kts | 4° |
| 2026-05-06 06:31 | 39.78160 | -104.66111 | 6519 ft | 144 kts | 4° |
| 2026-05-06 06:31 | 39.79146 | -104.66099 | 6277 ft | 139 kts | 3° |
| 2026-05-06 06:32 | 39.80093 | -104.66088 | 6061 ft | 134 kts | 1° |
| 2026-05-06 06:32 | 39.81037 | -104.66077 | 5869 ft | 138 kts | 1° |
| 2026-05-06 06:32 | 39.81996 | -104.66064 | 5660 ft | 136 kts | 0° |
| 2026-05-06 06:32 | 39.82928 | -104.66054 | 5472 ft | 131 kts | 1° |
| 2026-05-06 06:33 | 39.83771 | -104.66045 | 5421 ft | 98 kts | 0° |
| 2026-05-06 06:33 | 39.84274 | -104.66039 | 5415 ft | 52 kts | 0° |
| 2026-05-06 06:33 | 39.84518 | -104.66036 | 5408 ft | 23 kts | 0° |
| 2026-05-06 06:33 | 39.84673 | -104.66047 | 5408 ft | 22 kts | 352° |
| 2026-05-06 06:34 | 39.84827 | -104.66101 | 5396 ft | 23 kts | 333° |
| 2026-05-06 06:34 | 39.84931 | -104.66175 | 5398 ft | 0 kts | 331° |